Banff Airport


Codes: CYBA/YBA
Name: Banff Airport
City: Banff
Country: Canada
Elevation: 4583 ft.
Wikipedia:

Photos at Banff Airport


   Photos courtesy of SpottingLog. You can add your own sightings and photos by signing up for a free trial today.



No photos found.

Weather at Banff Airport


Time (UTC)DescriptionTempratureWindCloud coverageVisibilityPressureHumidity
25-Jun-2024 15:00Clear Sky3°C2 mph, SW8%10000m1019hPa67%
25-Jun-2024 18:00Clear Sky9°C2 mph, SW5%10000m1018hPa47%
25-Jun-2024 21:00Overcast Clouds16°C2 mph, SE92%10000m1015hPa26%
26-Jun-2024 00:00Broken Clouds15°C7 mph, SE58%10000m1014hPa38%
26-Jun-2024 03:00Broken Clouds9°C4 mph, E67%10000m1017hPa68%
26-Jun-2024 06:00Broken Clouds5°C2 mph, SE77%10000m1018hPa92%
26-Jun-2024 09:00Overcast Clouds5°C2 mph, NW92%10000m1017hPa92%
26-Jun-2024 12:00Overcast Clouds4°C2 mph, W96%10000m1015hPa84%
26-Jun-2024 15:00Overcast Clouds12°C2 mph, W98%10000m1011hPa44%
26-Jun-2024 18:00Broken Clouds19°C2 mph, S78%10000m1007hPa27%
26-Jun-2024 21:00Overcast Clouds19°C9 mph, SE100%10000m1003hPa26%
27-Jun-2024 00:00Light Rain10°C9 mph, SE100%10000m1006hPa65%
27-Jun-2024 03:00Light Rain7°C4 mph, SW100%10000m1006hPa89%
27-Jun-2024 06:00Light Rain5°C4 mph, W64%10000m1005hPa96%
27-Jun-2024 09:00Few Clouds3°C4 mph, W19%10000m1004hPa97%
27-Jun-2024 12:00Light Rain3°C4 mph, W36%10000m1003hPa97%
27-Jun-2024 15:00Light Rain6°C4 mph, SW100%10000m1002hPa83%
27-Jun-2024 18:00Moderate Rain5°C4 mph, W100%1388m1003hPa87%
27-Jun-2024 21:00Moderate Rain2°C4 mph, N100%0m1007hPa96%
28-Jun-2024 00:00Snow1°C7 mph, N100%94m1010hPa98%
28-Jun-2024 03:00Snow1°C7 mph, N100%0m1014hPa98%
28-Jun-2024 06:00Light Rain1°C7 mph, NW100%912m1016hPa98%
28-Jun-2024 09:00Overcast Clouds2°C4 mph, N100%3634m1016hPa98%
28-Jun-2024 12:00Overcast Clouds-0°C4 mph, N86%10000m1018hPa92%
28-Jun-2024 15:00Few Clouds6°C0 mph, SW19%10000m1016hPa71%
28-Jun-2024 18:00Few Clouds12°C2 mph, SW18%10000m1014hPa44%
28-Jun-2024 21:00Overcast Clouds12°C2 mph, S90%10000m1013hPa39%
29-Jun-2024 00:00Light Rain11°C4 mph, NE96%10000m1013hPa49%
29-Jun-2024 03:00Light Rain9°C4 mph, E74%10000m1014hPa72%
29-Jun-2024 06:00Broken Clouds4°C2 mph, E61%10000m1016hPa89%
29-Jun-2024 09:00Clear Sky3°C2 mph, NW5%10000m1016hPa90%
29-Jun-2024 12:00Clear Sky3°C2 mph, NW5%10000m1016hPa88%
29-Jun-2024 15:00Clear Sky10°C2 mph, SW10%10000m1014hPa57%
29-Jun-2024 18:00Scattered Clouds15°C2 mph, SE34%10000m1011hPa37%
29-Jun-2024 21:00Overcast Clouds17°C4 mph, S100%10000m1008hPa29%
30-Jun-2024 00:00Overcast Clouds15°C2 mph, S100%10000m1008hPa35%
30-Jun-2024 03:00Overcast Clouds12°C2 mph, SE100%10000m1009hPa58%
30-Jun-2024 06:00Overcast Clouds8°C2 mph, S100%10000m1011hPa74%
30-Jun-2024 09:00Overcast Clouds8°C2 mph, W100%10000m1009hPa66%
30-Jun-2024 12:00Overcast Clouds8°C4 mph, NW100%10000m1008hPa66%